createdAt,value
2022-10-23T00:00:17.842Z,2.70
2022-10-23T00:01:17.741Z,2.50
2022-10-23T00:02:17.779Z,2.70
2022-10-23T00:03:18.000Z,2.70
2022-10-23T00:04:17.715Z,2.70
2022-10-23T00:05:17.672Z,2.80
2022-10-23T00:06:17.675Z,2.50
2022-10-23T00:07:17.689Z,2.70
2022-10-23T00:08:17.635Z,2.40
2022-10-23T00:09:17.876Z,2.50
2022-10-23T00:10:17.626Z,2.70
2022-10-23T00:11:17.593Z,2.60
2022-10-23T00:12:17.605Z,2.50
2022-10-23T00:13:17.847Z,2.80
2022-10-23T00:14:17.564Z,2.80
2022-10-23T00:15:17.568Z,2.80
2022-10-23T00:16:17.557Z,2.60
2022-10-23T00:17:17.539Z,2.50
2022-10-23T00:18:17.529Z,2.60
2022-10-23T00:19:17.738Z,2.70
2022-10-23T00:20:17.509Z,2.60
2022-10-23T00:21:17.494Z,2.90
2022-10-23T00:22:17.480Z,2.60
2022-10-23T00:23:17.456Z,2.60
2022-10-23T00:24:17.668Z,2.80
2022-10-23T00:25:17.426Z,2.60
2022-10-23T00:26:17.430Z,2.50
2022-10-23T00:27:17.397Z,2.50
2022-10-23T00:28:17.399Z,2.60
2022-10-23T00:29:17.400Z,2.80
2022-10-23T00:30:17.590Z,3.00
2022-10-23T00:31:17.370Z,2.60
2022-10-23T00:32:17.362Z,2.80
2022-10-23T00:33:17.346Z,2.70
2022-10-23T00:34:17.319Z,2.70
2022-10-23T00:35:17.300Z,2.70
2022-10-23T00:36:17.533Z,2.80
2022-10-23T00:37:17.283Z,3.00
2022-10-23T00:38:17.284Z,2.60
2022-10-23T00:39:17.259Z,2.60
2022-10-23T00:40:17.263Z,2.80
2022-10-23T00:41:17.561Z,2.60
2022-10-23T00:42:17.238Z,2.80
2022-10-23T00:43:17.224Z,2.70
2022-10-23T00:44:17.202Z,2.50
2022-10-23T00:45:17.203Z,2.80
2022-10-23T00:46:17.177Z,2.70
2022-10-23T00:47:17.437Z,2.80
2022-10-23T00:48:17.165Z,2.70
2022-10-23T00:49:17.163Z,2.60
2022-10-23T00:50:17.123Z,2.90
2022-10-23T00:51:17.126Z,2.80
2022-10-23T00:52:17.426Z,2.70
2022-10-23T00:53:17.092Z,2.60
2022-10-23T00:54:24.074Z,2.60
2022-10-23T00:55:18.064Z,2.80
2022-10-23T00:56:17.067Z,2.50
2022-10-23T00:57:17.110Z,2.60
2022-10-23T00:58:17.377Z,2.60
2022-10-23T00:59:17.036Z,2.60
2022-10-23T01:00:17.006Z,2.60
2022-10-23T01:01:17.043Z,3.10
2022-10-23T01:02:17.198Z,2.30
2022-10-23T01:03:16.983Z,2.80
2022-10-23T01:04:16.990Z,2.60
2022-10-23T01:05:16.950Z,2.60
2022-10-23T01:06:16.927Z,2.80
2022-10-23T01:07:16.930Z,2.60
2022-10-23T01:08:16.926Z,2.80
2022-10-23T01:09:16.897Z,2.80
2022-10-23T01:10:17.138Z,2.80
2022-10-23T01:11:16.869Z,3.00
2022-10-23T01:12:16.872Z,2.70
2022-10-23T01:13:17.066Z,2.60
2022-10-23T01:14:16.839Z,2.70
2022-10-23T01:15:16.843Z,2.70
2022-10-23T01:16:16.831Z,2.90
2022-10-23T01:17:17.043Z,2.60
2022-10-23T01:18:16.790Z,2.40
2022-10-23T01:19:16.770Z,2.80
2022-10-23T01:20:19.022Z,2.70
2022-10-23T01:21:16.766Z,2.60
2022-10-23T01:22:16.825Z,2.60
2022-10-23T01:23:16.721Z,2.50
2022-10-23T01:24:16.725Z,2.60
2022-10-23T01:25:16.740Z,2.60
2022-10-23T01:26:16.693Z,2.70
2022-10-23T01:27:16.672Z,2.80
2022-10-23T01:28:16.676Z,2.80
2022-10-23T01:29:16.655Z,2.80
2022-10-23T01:30:16.646Z,2.60
2022-10-23T01:31:16.644Z,2.40
2022-10-23T01:32:16.636Z,2.70
2022-10-23T01:33:16.620Z,2.80
2022-10-23T01:34:16.613Z,2.80
2022-10-23T01:35:16.597Z,3.00
2022-10-23T01:36:16.580Z,2.80
2022-10-23T01:37:16.556Z,2.80
2022-10-23T01:38:16.545Z,2.70
2022-10-23T01:39:16.848Z,2.60
2022-10-23T01:40:16.531Z,2.50
2022-10-23T01:41:16.507Z,2.60
2022-10-23T01:42:16.508Z,2.80
2022-10-23T01:43:16.502Z,2.40
2022-10-23T01:44:16.699Z,2.30
2022-10-23T01:45:16.456Z,3.00
2022-10-23T01:46:16.460Z,2.50
2022-10-23T01:47:16.485Z,2.50
2022-10-23T01:48:16.426Z,2.40
2022-10-23T01:49:16.423Z,2.70
2022-10-23T01:50:16.431Z,2.30
2022-10-23T01:51:16.404Z,2.70
2022-10-23T01:52:16.380Z,2.80
2022-10-23T01:53:16.373Z,2.50
2022-10-23T01:54:16.628Z,2.60
2022-10-23T01:55:16.661Z,2.60
2022-10-23T01:56:16.650Z,2.80
2022-10-23T01:57:16.332Z,2.70
2022-10-23T01:58:16.323Z,2.60
2022-10-23T01:59:16.304Z,2.70
2022-10-23T02:00:16.279Z,2.80
2022-10-23T02:01:16.625Z,2.70
2022-10-23T02:02:16.338Z,2.50
2022-10-23T02:03:16.261Z,2.60
2022-10-23T02:04:16.232Z,2.60
2022-10-23T02:05:16.222Z,2.60
2022-10-23T02:06:16.542Z,2.60
2022-10-23T02:07:16.206Z,2.80
2022-10-23T02:08:16.465Z,2.80
2022-10-23T02:09:16.185Z,2.70
2022-10-23T02:10:16.154Z,2.70
2022-10-23T02:11:16.145Z,2.50
2022-10-23T02:12:16.529Z,2.60
2022-10-23T02:13:16.138Z,2.50
2022-10-23T02:14:16.126Z,2.50
2022-10-23T02:15:16.098Z,2.40
2022-10-23T02:16:16.085Z,2.70
2022-10-23T02:17:16.075Z,2.50
2022-10-23T02:18:16.324Z,2.70
2022-10-23T02:19:16.069Z,2.40
2022-10-23T02:20:16.049Z,2.60
2022-10-23T02:21:16.025Z,2.60
2022-10-23T02:22:16.039Z,2.60
2022-10-23T02:23:16.011Z,2.50
2022-10-23T02:24:16.286Z,2.70
2022-10-23T02:25:15.987Z,3.00
2022-10-23T02:26:15.978Z,2.70
2022-10-23T02:27:15.954Z,2.70
2022-10-23T02:28:16.270Z,3.10
2022-10-23T02:29:16.170Z,2.30
2022-10-23T02:30:15.929Z,2.60
2022-10-23T02:31:15.919Z,2.50
2022-10-23T02:32:15.889Z,2.50
2022-10-23T02:33:15.902Z,2.70
2022-10-23T02:34:15.883Z,2.60
2022-10-23T02:35:16.188Z,2.60
2022-10-23T02:36:15.839Z,2.40
2022-10-23T02:37:15.877Z,2.50
2022-10-23T02:38:15.835Z,2.50
2022-10-23T02:39:15.823Z,2.70
2022-10-23T02:40:15.791Z,2.70
2022-10-23T02:41:16.104Z,2.70
2022-10-23T02:42:15.770Z,2.60
2022-10-23T02:43:15.774Z,2.70
2022-10-23T02:44:15.756Z,2.70
2022-10-23T02:45:15.750Z,2.60
2022-10-23T02:46:16.031Z,2.50
2022-10-23T02:47:15.722Z,2.70
2022-10-23T02:48:15.693Z,2.40
2022-10-23T02:49:15.705Z,2.70
2022-10-23T02:50:15.707Z,2.60
2022-10-23T02:51:15.679Z,2.70
2022-10-23T02:52:15.957Z,2.80
2022-10-23T02:53:15.657Z,2.80
2022-10-23T02:54:15.626Z,2.60
2022-10-23T02:55:15.627Z,2.40
2022-10-23T02:56:15.595Z,2.50
2022-10-23T02:57:15.908Z,2.70
2022-10-23T02:58:15.576Z,2.50
2022-10-23T02:59:15.579Z,2.60
2022-10-23T03:00:15.546Z,2.50
2022-10-23T03:01:15.622Z,2.70
2022-10-23T03:02:15.884Z,2.60
2022-10-23T03:03:15.516Z,2.90
2022-10-23T03:04:15.505Z,2.80
2022-10-23T03:05:15.512Z,2.80
2022-10-23T03:06:15.727Z,2.40
2022-10-23T03:07:15.493Z,2.80
2022-10-23T03:08:15.448Z,2.90
2022-10-23T03:09:15.456Z,2.40
2022-10-23T03:10:15.427Z,2.50
2022-10-23T03:11:15.418Z,2.50
2022-10-23T03:12:15.622Z,2.70
2022-10-23T03:13:15.410Z,2.50
2022-10-23T03:14:15.394Z,2.70
2022-10-23T03:15:15.369Z,2.50
2022-10-23T03:16:15.370Z,2.70
2022-10-23T03:17:15.609Z,2.50
2022-10-23T03:18:15.329Z,2.40
2022-10-23T03:19:15.642Z,2.80
2022-10-23T03:20:15.324Z,2.50
2022-10-23T03:21:15.312Z,2.60
2022-10-23T03:22:15.281Z,2.50
2022-10-23T03:23:15.273Z,2.50
2022-10-23T03:24:15.474Z,2.70
2022-10-23T03:25:15.265Z,2.80
2022-10-23T03:26:15.240Z,2.60
2022-10-23T03:27:15.271Z,2.80
2022-10-23T03:28:15.426Z,2.70
2022-10-23T03:29:15.216Z,2.50
2022-10-23T03:30:15.205Z,2.70
2022-10-23T03:31:15.194Z,2.60
2022-10-23T03:32:15.170Z,3.10
2022-10-23T03:33:15.155Z,3.00
2022-10-23T03:34:15.457Z,2.90
2022-10-23T03:35:15.148Z,2.80
2022-10-23T03:36:15.328Z,2.80
2022-10-23T03:37:15.128Z,3.40
2022-10-23T03:38:15.400Z,2.80
2022-10-23T03:39:15.088Z,2.80
2022-10-23T03:40:15.063Z,2.70
2022-10-23T03:41:15.280Z,2.70
2022-10-23T03:42:15.049Z,2.60
2022-10-23T03:43:15.030Z,2.90
2022-10-23T03:44:15.030Z,2.90
2022-10-23T03:45:15.211Z,2.80
2022-10-23T03:46:14.996Z,3.00
2022-10-23T03:47:15.187Z,3.00
2022-10-23T03:48:14.967Z,3.00
2022-10-23T03:49:14.958Z,2.90
2022-10-23T03:50:14.952Z,3.30
2022-10-23T03:51:14.948Z,3.00
2022-10-23T03:52:15.019Z,3.20
2022-10-23T03:53:15.041Z,3.00
2022-10-23T03:54:14.910Z,2.70
2022-10-23T03:55:15.089Z,2.90
2022-10-23T03:56:14.882Z,3.00
2022-10-23T03:57:14.859Z,2.70
2022-10-23T03:58:14.862Z,2.90
2022-10-23T03:59:14.840Z,3.00
2022-10-23T04:00:14.951Z,2.90
2022-10-23T04:01:14.876Z,2.90
2022-10-23T04:02:14.856Z,2.70
2022-10-23T04:03:14.804Z,2.90
2022-10-23T04:04:15.054Z,2.60
2022-10-23T04:05:14.770Z,2.70
2022-10-23T04:06:14.751Z,2.90
2022-10-23T04:07:14.903Z,2.80
2022-10-23T04:08:17.701Z,2.90
2022-10-23T04:09:15.728Z,2.70
2022-10-23T04:10:14.724Z,2.50
2022-10-23T04:11:14.712Z,2.70
2022-10-23T04:12:14.865Z,2.80
2022-10-23T04:13:14.687Z,2.90
2022-10-23T04:14:14.675Z,2.70
2022-10-23T04:15:14.795Z,2.80
2022-10-23T04:16:14.878Z,2.50
2022-10-23T04:17:14.732Z,2.50
2022-10-23T04:18:14.606Z,2.60
2022-10-23T04:19:14.608Z,2.70
2022-10-23T04:20:14.585Z,2.30
2022-10-23T04:21:14.577Z,2.70
2022-10-23T04:22:14.898Z,2.70
2022-10-23T04:23:14.569Z,2.50
2022-10-23T04:24:14.536Z,2.70
2022-10-23T04:25:14.526Z,2.80
2022-10-23T04:26:14.530Z,2.70
2022-10-23T04:27:14.497Z,2.90
2022-10-23T04:28:14.532Z,2.60
2022-10-23T04:29:14.491Z,2.70
2022-10-23T04:30:14.481Z,2.60
2022-10-23T04:31:14.454Z,2.60
2022-10-23T04:32:14.439Z,2.70
2022-10-23T04:33:14.642Z,2.60
2022-10-23T04:34:14.431Z,2.70
2022-10-23T04:35:14.420Z,2.60
2022-10-23T04:36:14.408Z,2.60
2022-10-23T04:37:14.393Z,2.50
2022-10-23T04:38:14.380Z,2.40
2022-10-23T04:39:14.624Z,2.90
2022-10-23T04:40:14.341Z,2.40
2022-10-23T04:41:14.555Z,2.50
2022-10-23T04:42:14.427Z,2.50
2022-10-23T04:43:14.314Z,2.40
2022-10-23T04:44:14.294Z,2.40
2022-10-23T04:45:14.545Z,2.50
2022-10-23T04:46:14.286Z,4.40
2022-10-23T04:47:14.262Z,3.20
2022-10-23T04:48:14.253Z,2.70
2022-10-23T04:49:14.547Z,2.40
2022-10-23T04:50:14.238Z,2.60
2022-10-23T04:51:14.214Z,2.40
2022-10-23T04:52:14.208Z,2.40
2022-10-23T04:53:14.193Z,2.50
2022-10-23T04:54:14.189Z,2.70
2022-10-23T04:55:14.412Z,2.50
2022-10-23T04:56:14.168Z,2.50
2022-10-23T04:57:14.144Z,2.30
2022-10-23T04:58:14.140Z,2.50
2022-10-23T04:59:14.116Z,2.90
2022-10-23T05:00:14.118Z,2.70
2022-10-23T05:01:14.736Z,2.60
2022-10-23T05:02:14.090Z,2.50
2022-10-23T05:03:14.081Z,2.30
2022-10-23T05:04:14.047Z,2.60
2022-10-23T05:05:14.061Z,2.80
2022-10-23T05:06:14.308Z,2.60
2022-10-23T05:07:14.085Z,2.50
2022-10-23T05:08:17.121Z,2.70
2022-10-23T05:09:13.999Z,2.60
2022-10-23T05:10:13.986Z,2.40
2022-10-23T05:11:13.970Z,2.90
2022-10-23T05:12:14.378Z,2.40
2022-10-23T05:13:13.961Z,2.40
2022-10-23T05:14:15.585Z,2.50
2022-10-23T05:15:13.920Z,2.40
2022-10-23T05:16:13.900Z,2.40
2022-10-23T05:17:14.234Z,2.40
2022-10-23T05:18:13.880Z,2.60
2022-10-23T05:19:13.895Z,2.60
2022-10-23T05:20:13.863Z,2.60
2022-10-23T05:21:13.863Z,2.60
2022-10-23T05:22:13.831Z,2.30
2022-10-23T05:23:14.265Z,2.40
2022-10-23T05:24:13.824Z,2.60
2022-10-23T05:25:13.813Z,2.50
2022-10-23T05:26:13.793Z,2.50
2022-10-23T05:27:13.773Z,2.70
2022-10-23T05:28:13.776Z,2.50
2022-10-23T05:29:14.003Z,2.50
2022-10-23T05:30:13.746Z,2.60
2022-10-23T05:31:13.745Z,2.60
2022-10-23T05:32:14.040Z,2.70
2022-10-23T05:33:13.977Z,2.30
2022-10-23T05:34:14.018Z,2.70
2022-10-23T05:35:13.688Z,2.60
2022-10-23T05:36:13.666Z,2.70
2022-10-23T05:37:13.669Z,2.50
2022-10-23T05:38:13.645Z,2.60
2022-10-23T05:39:13.969Z,2.50
2022-10-23T05:40:13.629Z,2.40
2022-10-23T05:41:13.615Z,2.40
2022-10-23T05:42:13.609Z,2.50
2022-10-23T05:43:13.619Z,2.80
2022-10-23T05:44:13.593Z,2.40
2022-10-23T05:45:13.865Z,2.70
2022-10-23T05:46:13.559Z,2.30
2022-10-23T05:47:13.540Z,2.50
2022-10-23T05:48:29.805Z,2.50
2022-10-23T05:49:14.515Z,2.30
2022-10-23T05:50:13.499Z,2.60
2022-10-23T05:51:13.512Z,2.40
2022-10-23T05:52:13.469Z,2.50
2022-10-23T05:53:13.494Z,2.60
2022-10-23T05:54:13.461Z,2.80
2022-10-23T05:55:13.727Z,2.60
2022-10-23T05:56:13.433Z,2.80
2022-10-23T05:57:13.490Z,2.90
2022-10-23T05:58:13.413Z,2.40
2022-10-23T05:59:13.403Z,2.60
2022-10-23T06:00:13.383Z,2.70
2022-10-23T06:01:13.746Z,2.50
2022-10-23T06:02:13.452Z,2.40
2022-10-23T06:03:13.340Z,2.40
2022-10-23T06:04:19.982Z,2.50
2022-10-23T06:05:13.321Z,2.30
2022-10-23T06:06:14.778Z,2.40
2022-10-23T06:07:13.582Z,2.50
2022-10-23T06:08:13.307Z,2.90
2022-10-23T06:09:13.286Z,2.60
2022-10-23T06:10:13.252Z,2.60
2022-10-23T06:11:13.259Z,2.40
2022-10-23T06:12:13.223Z,2.40
2022-10-23T06:13:13.547Z,2.20
2022-10-23T06:14:13.213Z,2.40
2022-10-23T06:15:13.208Z,2.40
2022-10-23T06:16:13.176Z,2.60
2022-10-23T06:17:13.174Z,2.60
2022-10-23T06:18:13.154Z,2.80
2022-10-23T06:19:13.369Z,2.30
2022-10-23T06:20:13.149Z,2.90
2022-10-23T06:21:13.144Z,2.50
2022-10-23T06:22:13.160Z,2.30
2022-10-23T06:23:13.122Z,2.50
2022-10-23T06:24:13.105Z,2.60
2022-10-23T06:25:13.392Z,2.30
2022-10-23T06:26:13.071Z,2.50
2022-10-23T06:27:13.047Z,2.30
2022-10-23T06:28:15.907Z,2.50
2022-10-23T06:29:14.033Z,2.20
2022-10-23T06:30:13.031Z,2.10
2022-10-23T06:31:13.328Z,2.10
2022-10-23T06:32:12.988Z,2.60
2022-10-23T06:33:12.990Z,1.70
2022-10-23T06:34:12.960Z,2.20
2022-10-23T06:35:12.949Z,2.10
2022-10-23T06:36:12.942Z,2.00
2022-10-23T06:37:12.955Z,2.00
2022-10-23T06:38:12.932Z,2.00
2022-10-23T06:39:12.912Z,2.00
2022-10-23T06:40:12.894Z,2.20
2022-10-23T06:41:12.881Z,1.90
2022-10-23T06:42:13.206Z,2.00
2022-10-23T06:43:12.852Z,2.00
2022-10-23T06:44:12.870Z,1.80
2022-10-23T06:45:13.145Z,2.00
2022-10-23T06:46:12.835Z,1.90
2022-10-23T06:47:12.885Z,1.90
2022-10-23T06:48:12.815Z,2.00
2022-10-23T06:49:12.786Z,1.80
2022-10-23T06:50:15.369Z,1.80
2022-10-23T06:51:12.764Z,1.90
2022-10-23T06:52:18.407Z,1.90
2022-10-23T06:53:13.755Z,2.30
2022-10-23T06:54:12.975Z,2.20
2022-10-23T06:55:12.729Z,2.30
2022-10-23T06:56:12.709Z,2.00
2022-10-23T06:57:12.699Z,1.80
2022-10-23T06:58:12.683Z,2.10
2022-10-23T06:59:12.666Z,2.10
2022-10-23T07:00:12.679Z,1.90
2022-10-23T07:01:12.945Z,1.70
2022-10-23T07:02:12.650Z,1.80
2022-10-23T07:03:12.638Z,2.00
2022-10-23T07:04:12.640Z,1.90
2022-10-23T07:05:13.739Z,1.90
2022-10-23T07:06:12.626Z,1.60
2022-10-23T07:07:12.570Z,1.90
2022-10-23T07:08:12.569Z,1.60
2022-10-23T07:09:12.579Z,1.90
2022-10-23T07:11:12.519Z,1.80
2022-10-23T07:12:12.532Z,1.70
2022-10-23T07:13:12.517Z,1.80
2022-10-23T07:14:12.504Z,1.90
2022-10-23T07:15:12.790Z,1.70
2022-10-23T07:16:12.470Z,1.70
2022-10-23T07:17:12.471Z,1.60
2022-10-23T07:18:12.448Z,1.90
2022-10-23T07:19:12.464Z,1.80
2022-10-23T07:20:12.435Z,1.70
2022-10-23T07:21:12.403Z,1.70
2022-10-23T07:22:15.006Z,1.60
2022-10-23T07:23:12.383Z,1.70
2022-10-23T07:24:12.385Z,1.60
2022-10-23T07:25:12.564Z,1.90
2022-10-23T07:26:12.385Z,1.70
2022-10-23T07:27:12.334Z,1.70
2022-10-23T07:28:12.344Z,1.60
2022-10-23T07:29:12.313Z,1.80
2022-10-23T07:30:12.324Z,1.70
2022-10-23T07:31:12.328Z,1.60
2022-10-23T07:32:12.298Z,1.80
2022-10-23T07:33:12.286Z,1.70
2022-10-23T07:34:12.275Z,1.40
2022-10-23T07:35:12.299Z,1.60
2022-10-23T07:36:12.244Z,1.60
2022-10-23T07:37:12.236Z,1.70
2022-10-23T07:38:18.896Z,1.60
2022-10-23T07:39:12.217Z,1.50
2022-10-23T07:40:12.200Z,1.70
2022-10-23T07:41:12.523Z,1.90
2022-10-23T07:42:12.196Z,1.60
2022-10-23T07:43:12.149Z,1.70
2022-10-23T07:44:12.138Z,1.80
2022-10-23T07:45:12.134Z,1.50
2022-10-23T07:46:12.118Z,1.70
2022-10-23T07:47:12.124Z,1.60
2022-10-23T07:48:12.133Z,1.70
2022-10-23T07:49:12.078Z,1.40
2022-10-23T07:50:12.069Z,1.50
2022-10-23T07:51:12.075Z,2.30
2022-10-23T07:52:12.064Z,1.80
2022-10-23T07:53:12.031Z,2.10
2022-10-23T07:54:12.054Z,1.90
2022-10-23T07:55:12.010Z,1.90
2022-10-23T07:56:12.001Z,1.80
2022-10-23T07:57:12.016Z,1.80
2022-10-23T07:58:11.995Z,1.50
2022-10-23T07:59:11.983Z,1.60
2022-10-23T08:00:11.997Z,1.70
2022-10-23T08:01:11.968Z,1.60
2022-10-23T08:02:11.988Z,1.60
2022-10-23T08:03:11.914Z,1.50
2022-10-23T08:04:11.928Z,1.60
2022-10-23T08:05:11.907Z,1.70
2022-10-23T08:06:11.883Z,1.70
2022-10-23T08:07:11.906Z,1.60
2022-10-23T08:08:11.884Z,1.70
2022-10-23T08:09:11.845Z,1.50
2022-10-23T08:10:11.838Z,1.80
2022-10-23T08:11:11.839Z,1.70
2022-10-23T08:12:11.848Z,1.70
2022-10-23T08:13:11.812Z,1.90
2022-10-23T08:14:11.808Z,1.50
2022-10-23T08:15:11.786Z,1.90
2022-10-23T08:16:12.103Z,1.70
2022-10-23T08:17:11.757Z,1.40
2022-10-23T08:18:11.749Z,1.60
2022-10-23T08:19:11.728Z,2.00
2022-10-23T08:20:11.726Z,1.60
2022-10-23T08:21:11.738Z,1.90
2022-10-23T08:22:11.699Z,1.60
2022-10-23T08:23:11.701Z,1.50
2022-10-23T08:24:11.694Z,1.70
2022-10-23T08:25:11.726Z,1.50
2022-10-23T08:26:11.650Z,1.50
2022-10-23T08:27:11.911Z,1.70
2022-10-23T08:28:11.651Z,1.60
2022-10-23T08:29:11.623Z,1.30
2022-10-23T08:30:11.623Z,1.40
2022-10-23T08:31:11.604Z,1.50
2022-10-23T08:32:11.874Z,1.40
2022-10-23T08:33:11.561Z,1.50
2022-10-23T08:34:11.576Z,1.40
2022-10-23T08:35:11.542Z,1.30
2022-10-23T08:36:11.533Z,1.60
2022-10-23T08:37:11.842Z,1.30
2022-10-23T08:38:11.514Z,1.50
2022-10-23T08:39:11.493Z,1.40
2022-10-23T08:40:11.498Z,1.50
2022-10-23T08:41:11.497Z,1.50
2022-10-23T08:43:11.768Z,1.40
2022-10-23T08:44:11.448Z,1.20
2022-10-23T08:45:11.428Z,1.50
2022-10-23T08:46:11.417Z,1.30
2022-10-23T08:47:11.399Z,1.40
2022-10-23T08:48:11.623Z,1.70
2022-10-23T08:49:11.378Z,1.50
2022-10-23T08:50:11.396Z,1.40
2022-10-23T08:51:11.368Z,1.30
2022-10-23T08:52:13.259Z,1.30
2022-10-23T08:53:11.328Z,1.20
2022-10-23T08:54:11.321Z,1.40
2022-10-23T08:55:11.308Z,1.30
2022-10-23T08:56:11.318Z,1.30
2022-10-23T08:57:11.293Z,1.10
2022-10-23T08:58:11.290Z,1.40
2022-10-23T08:59:11.273Z,1.10
2022-10-23T09:00:11.265Z,1.30
2022-10-23T09:01:11.649Z,1.10
2022-10-23T09:02:11.323Z,1.10
2022-10-23T09:03:11.225Z,1.00
2022-10-23T09:04:11.201Z,1.10
2022-10-23T09:05:11.223Z,1.20
2022-10-23T09:06:11.432Z,0.90
2022-10-23T09:07:11.170Z,1.20
2022-10-23T09:08:11.174Z,1.20
2022-10-23T09:09:11.362Z,1.30
2022-10-23T09:10:11.149Z,0.90
2022-10-23T09:11:11.123Z,1.20
2022-10-23T09:12:11.126Z,1.10
2022-10-23T09:13:11.118Z,1.20
2022-10-23T09:14:11.098Z,1.20
2022-10-23T09:15:11.095Z,1.10
2022-10-23T09:16:11.066Z,1.20
2022-10-23T09:17:11.071Z,1.10
2022-10-23T09:18:11.038Z,1.20
2022-10-23T09:19:12.146Z,1.10
2022-10-23T09:20:11.017Z,1.10
2022-10-23T09:21:11.019Z,1.10
2022-10-23T09:22:11.256Z,1.20
2022-10-23T09:23:11.000Z,2.50
2022-10-23T09:24:10.967Z,1.50
2022-10-23T09:25:10.995Z,1.10
2022-10-23T09:26:10.961Z,1.20
2022-10-23T09:27:10.952Z,1.30
2022-10-23T09:28:10.921Z,1.20
2022-10-23T09:29:10.909Z,1.10
2022-10-23T09:30:10.899Z,1.10
2022-10-23T09:31:11.164Z,1.20
2022-10-23T09:32:10.870Z,1.00
2022-10-23T09:33:10.861Z,1.20
2022-10-23T09:34:11.792Z,1.40
2022-10-23T09:35:10.861Z,1.10
2022-10-23T09:36:10.832Z,1.10
2022-10-23T09:37:10.836Z,1.00
2022-10-23T09:38:10.805Z,1.00
2022-10-23T09:39:11.102Z,1.10
2022-10-23T09:40:10.782Z,1.10
2022-10-23T09:41:10.778Z,0.90
2022-10-23T09:42:10.755Z,1.00
2022-10-23T09:43:10.744Z,1.00
2022-10-23T09:44:10.964Z,1.00
2022-10-23T09:45:10.737Z,1.00
2022-10-23T09:46:10.721Z,1.10
2022-10-23T09:47:10.709Z,1.10
2022-10-23T09:48:10.699Z,1.50
2022-10-23T09:49:10.689Z,1.10
2022-10-23T09:50:10.677Z,1.20
2022-10-23T09:51:10.646Z,1.00
2022-10-23T09:52:10.652Z,1.00
2022-10-23T09:53:10.672Z,1.20
2022-10-23T09:54:10.631Z,1.00
2022-10-23T09:55:10.628Z,0.80
2022-10-23T09:56:10.589Z,1.00
2022-10-23T09:57:10.816Z,0.90
2022-10-23T09:58:10.569Z,0.90
2022-10-23T09:59:10.550Z,1.00
2022-10-23T10:00:10.582Z,1.50
2022-10-23T10:01:10.591Z,1.20
2022-10-23T10:02:10.578Z,1.10
2022-10-23T10:03:10.785Z,1.00
2022-10-23T10:04:10.491Z,0.90
2022-10-23T10:05:10.502Z,1.00
2022-10-23T10:06:10.494Z,1.00
2022-10-23T10:07:10.472Z,1.40
2022-10-23T10:08:10.698Z,1.20
2022-10-23T10:09:10.432Z,1.50
2022-10-23T10:10:10.432Z,1.80
2022-10-23T10:11:10.425Z,1.30
2022-10-23T10:12:10.423Z,1.80
2022-10-23T10:13:14.820Z,1.90
2022-10-23T10:14:10.375Z,1.30
2022-10-23T10:15:10.398Z,1.20
2022-10-23T10:16:10.355Z,1.00
2022-10-23T10:17:10.345Z,0.90
2022-10-23T10:18:10.348Z,1.00
2022-10-23T10:19:10.358Z,0.90
2022-10-23T10:20:10.338Z,1.20
2022-10-23T10:21:10.308Z,1.10
2022-10-23T10:22:10.598Z,1.30
2022-10-23T10:23:10.285Z,1.00
2022-10-23T10:24:10.293Z,0.90
2022-10-23T10:25:10.248Z,0.90
2022-10-23T10:26:10.238Z,1.10
2022-10-23T10:27:10.233Z,1.10
2022-10-23T10:28:10.538Z,0.90
2022-10-23T10:29:10.233Z,0.90
2022-10-23T10:30:10.206Z,0.80
2022-10-23T10:31:10.193Z,1.00
2022-10-23T10:32:10.172Z,0.90
2022-10-23T10:33:10.165Z,1.10
2022-10-23T10:34:10.151Z,1.20
2022-10-23T10:35:10.445Z,1.00
2022-10-23T10:36:10.137Z,0.90
2022-10-23T10:37:10.112Z,1.20
2022-10-23T10:38:10.094Z,0.90
2022-10-23T10:39:10.098Z,1.10
2022-10-23T10:40:10.087Z,1.30
2022-10-23T10:41:10.285Z,1.00
2022-10-23T10:42:10.044Z,1.00
2022-10-23T10:43:10.035Z,1.10
2022-10-23T10:44:10.024Z,1.10
2022-10-23T10:45:10.024Z,1.00
2022-10-23T10:46:10.061Z,1.20
2022-10-23T10:47:10.320Z,1.10
2022-10-23T10:48:09.995Z,1.00
2022-10-23T10:49:09.989Z,1.00
2022-10-23T10:50:09.971Z,1.20
2022-10-23T10:51:09.939Z,0.90
2022-10-23T10:52:09.931Z,1.00
2022-10-23T10:53:10.241Z,1.10
2022-10-23T10:54:09.899Z,0.90
2022-10-23T10:55:09.935Z,1.10
2022-10-23T10:57:09.890Z,1.20
2022-10-23T10:58:09.874Z,1.00
2022-10-23T10:59:09.842Z,1.00
2022-10-23T11:00:09.856Z,1.10
2022-10-23T11:01:10.248Z,1.00
2022-10-23T11:02:09.958Z,1.10
2022-10-23T11:03:09.824Z,1.00
2022-10-23T11:04:09.803Z,1.00
2022-10-23T11:05:09.774Z,1.10
2022-10-23T11:06:09.777Z,1.00
2022-10-23T11:07:10.115Z,1.20
2022-10-23T11:08:09.733Z,1.00
2022-10-23T11:09:20.130Z,1.10
2022-10-23T11:10:10.714Z,1.10
2022-10-23T11:11:09.704Z,1.00
2022-10-23T11:12:09.956Z,1.20
2022-10-23T11:13:09.683Z,1.00
2022-10-23T11:14:09.666Z,0.90
2022-10-23T11:15:09.677Z,1.10
2022-10-23T11:16:09.660Z,1.10
2022-10-23T11:17:09.637Z,1.00
2022-10-23T11:18:09.962Z,1.00
2022-10-23T11:19:12.967Z,1.20
2022-10-23T11:20:09.611Z,0.90
2022-10-23T11:21:09.588Z,1.00
2022-10-23T11:22:09.838Z,1.10
2022-10-23T11:23:09.568Z,1.10
2022-10-23T11:25:09.554Z,1.10
2022-10-23T11:26:09.520Z,1.10
2022-10-23T11:27:09.533Z,1.10
2022-10-23T11:28:10.727Z,1.20
2022-10-23T11:29:09.504Z,1.20
2022-10-23T11:30:09.492Z,1.10
2022-10-23T11:31:11.954Z,0.90
2022-10-23T11:32:09.477Z,0.90
2022-10-23T11:33:09.763Z,1.00
2022-10-23T11:34:09.477Z,1.20
2022-10-23T11:35:09.446Z,1.30
2022-10-23T11:36:09.426Z,1.00
2022-10-23T11:37:09.405Z,1.10
2022-10-23T11:38:09.646Z,0.90
2022-10-23T11:39:09.383Z,1.10
2022-10-23T11:40:09.366Z,1.20
2022-10-23T11:41:09.368Z,1.20
2022-10-23T11:42:09.357Z,1.20
2022-10-23T11:43:09.326Z,1.30
2022-10-23T11:44:09.347Z,1.10
2022-10-23T11:45:09.507Z,1.00
2022-10-23T11:46:09.312Z,1.20
2022-10-23T11:47:09.287Z,0.90
2022-10-23T11:48:09.268Z,1.10
2022-10-23T11:49:09.548Z,1.00
2022-10-23T11:50:09.261Z,1.10
2022-10-23T11:51:09.239Z,0.90
2022-10-23T11:52:09.240Z,1.10
2022-10-23T11:53:16.850Z,1.00
2022-10-23T11:54:10.212Z,1.10
2022-10-23T11:55:09.200Z,0.80
2022-10-23T11:56:09.191Z,1.10
2022-10-23T11:57:10.638Z,1.00
2022-10-23T11:58:09.154Z,1.00
2022-10-23T11:59:09.164Z,1.00
2022-10-23T12:00:09.132Z,1.10
2022-10-23T12:01:09.163Z,1.20
2022-10-23T12:02:09.407Z,1.30
2022-10-23T12:03:09.115Z,1.00
2022-10-23T12:04:09.084Z,0.90
2022-10-23T12:05:09.076Z,1.00
2022-10-23T12:06:09.378Z,1.10
2022-10-23T12:07:09.118Z,1.00
2022-10-23T12:08:09.063Z,1.10
2022-10-23T12:09:09.046Z,0.90
2022-10-23T12:10:09.067Z,0.90
2022-10-23T12:11:09.015Z,1.20
2022-10-23T12:12:09.349Z,0.90
2022-10-23T12:13:09.000Z,1.30
2022-10-23T12:14:09.027Z,0.90
2022-10-23T12:15:08.983Z,1.00
2022-10-23T12:16:08.962Z,0.90
2022-10-23T12:17:08.982Z,0.90
2022-10-23T12:18:08.942Z,1.00
2022-10-23T12:19:08.930Z,0.90
2022-10-23T12:20:08.926Z,0.90
2022-10-23T12:21:08.899Z,1.00
2022-10-23T12:22:08.870Z,1.10
2022-10-23T12:23:08.896Z,0.80
2022-10-23T12:24:08.861Z,1.00
2022-10-23T12:25:08.861Z,1.00
2022-10-23T12:26:08.844Z,0.90
2022-10-23T12:27:08.813Z,1.10
2022-10-23T12:28:08.817Z,1.00
2022-10-23T12:29:09.015Z,1.10
2022-10-23T12:30:08.785Z,1.00
2022-10-23T12:31:08.776Z,1.20
2022-10-23T12:32:08.754Z,1.20
2022-10-23T12:33:08.832Z,0.90
2022-10-23T12:34:08.798Z,1.20
2022-10-23T12:35:08.759Z,1.00
2022-10-23T12:36:09.044Z,1.10
2022-10-23T12:37:08.735Z,1.10
2022-10-23T12:38:08.773Z,1.30
2022-10-23T12:39:08.778Z,1.10
2022-10-23T12:40:08.659Z,1.20
2022-10-23T12:41:08.659Z,1.10
2022-10-23T12:42:08.976Z,1.20
2022-10-23T12:43:08.649Z,1.10
2022-10-23T12:44:08.632Z,1.10
2022-10-23T12:45:08.632Z,1.30
2022-10-23T12:46:08.613Z,1.10
2022-10-23T12:47:08.602Z,1.10
2022-10-23T12:48:08.783Z,1.20
2022-10-23T12:49:08.814Z,1.10
2022-10-23T12:50:08.644Z,1.20
2022-10-23T12:51:08.851Z,1.20
2022-10-23T12:52:08.529Z,1.50
2022-10-23T12:53:08.521Z,1.10
2022-10-23T12:54:08.501Z,1.10
2022-10-23T12:55:08.493Z,1.00
2022-10-23T12:56:08.767Z,1.30
2022-10-23T12:57:08.486Z,1.30
2022-10-23T12:58:08.454Z,1.30
2022-10-23T12:59:08.444Z,1.20
2022-10-23T13:00:08.504Z,1.20
2022-10-23T13:01:08.537Z,1.20
2022-10-23T13:02:08.712Z,1.30
2022-10-23T13:03:08.408Z,1.60
2022-10-23T13:04:08.445Z,1.50
2022-10-23T13:05:08.399Z,1.80
2022-10-23T13:06:08.378Z,1.30
2022-10-23T13:07:08.677Z,1.20
2022-10-23T13:08:08.351Z,1.10
2022-10-23T13:09:08.328Z,1.70
2022-10-23T13:10:08.393Z,1.40
2022-10-23T13:11:08.309Z,1.20
2022-10-23T13:12:08.302Z,1.20
2022-10-23T13:13:08.511Z,1.30
2022-10-23T13:14:08.279Z,1.80
2022-10-23T13:15:08.263Z,1.40
2022-10-23T13:16:08.241Z,1.80
2022-10-23T13:17:08.553Z,1.60
2022-10-23T13:18:08.234Z,1.80
2022-10-23T13:19:08.455Z,1.40
2022-10-23T13:20:08.201Z,1.60
2022-10-23T13:21:08.215Z,1.80
2022-10-23T13:22:08.187Z,1.70